createdAt,value
2019-02-18T00:02:36.000Z,6.80
2019-02-18T00:05:40.683Z,6.60
2019-02-18T00:08:44.496Z,6.90
2019-02-18T00:11:47.097Z,6.85
2019-02-18T00:14:49.739Z,6.78
2019-02-18T00:17:52.496Z,6.46
2019-02-18T00:20:55.166Z,6.74
2019-02-18T00:23:57.785Z,6.78
2019-02-18T00:27:00.394Z,7.14
2019-02-18T00:30:03.111Z,6.64
2019-02-18T00:33:05.898Z,6.44
2019-02-18T00:36:08.646Z,6.30
2019-02-18T00:39:11.314Z,6.30
2019-02-18T00:42:13.936Z,6.66
2019-02-18T00:45:16.690Z,6.52
2019-02-18T00:48:19.268Z,6.37
2019-02-18T00:51:21.794Z,6.14
2019-02-18T00:54:24.338Z,6.13
2019-02-18T00:57:26.936Z,6.21
2019-02-18T01:00:29.610Z,6.05
2019-02-18T01:03:32.194Z,6.17
2019-02-18T01:06:34.767Z,6.49
2019-02-18T01:09:39.675Z,6.55
2019-02-18T01:12:42.241Z,6.71
2019-02-18T01:15:44.841Z,6.34
2019-02-18T01:18:47.440Z,6.05
2019-02-18T01:21:50.129Z,5.79
2019-02-18T01:24:52.835Z,6.30
2019-02-18T01:27:55.407Z,6.27
2019-02-18T01:30:58.134Z,5.98
2019-02-18T01:34:00.880Z,6.09
2019-02-18T01:37:03.471Z,6.01
2019-02-18T01:40:08.437Z,5.87
2019-02-18T01:43:11.034Z,6.13
2019-02-18T01:46:13.594Z,5.94
2019-02-18T01:49:17.249Z,5.83
2019-02-18T01:52:19.871Z,6.01
2019-02-18T01:55:23.644Z,5.61
2019-02-18T01:58:26.346Z,5.75
2019-02-18T02:01:30.141Z,5.72
2019-02-18T02:04:32.739Z,5.93
2019-02-18T02:07:35.329Z,6.11
2019-02-18T02:10:37.929Z,5.64
2019-02-18T02:13:40.517Z,5.50
2019-02-18T02:16:43.229Z,5.55
2019-02-18T02:19:45.819Z,5.49
2019-02-18T02:22:48.385Z,5.45
2019-02-18T02:25:51.014Z,5.70
2019-02-18T02:28:53.634Z,5.37
2019-02-18T02:31:57.312Z,5.30
2019-02-18T02:34:59.960Z,5.31
2019-02-18T02:38:07.569Z,5.46
2019-02-18T02:41:08.519Z,5.45
2019-02-18T02:44:11.271Z,5.21
2019-02-18T02:47:13.951Z,5.13
2019-02-18T02:50:17.720Z,5.05
2019-02-18T02:53:20.356Z,5.08
2019-02-18T02:56:22.919Z,5.02
2019-02-18T02:59:25.514Z,5.08
2019-02-18T03:02:28.084Z,5.23
2019-02-18T03:05:30.712Z,5.26
2019-02-18T03:08:33.348Z,5.39
2019-02-18T03:11:35.958Z,5.37
2019-02-18T03:14:38.629Z,5.35
2019-02-18T03:17:41.306Z,5.33
2019-02-18T03:20:43.886Z,5.46
2019-02-18T03:23:46.453Z,5.40
2019-02-18T03:26:49.034Z,5.26
2019-02-18T03:30:37.031Z,5.28
2019-02-18T03:33:51.858Z,5.12
2019-02-18T03:36:54.606Z,4.93
2019-02-18T03:39:57.250Z,5.25
2019-02-18T03:42:59.899Z,5.45
2019-02-18T03:46:02.548Z,5.21
2019-02-18T03:49:05.214Z,4.96
2019-02-18T03:52:07.836Z,5.16
2019-02-18T03:55:10.589Z,5.04
2019-02-18T03:58:13.194Z,5.18
2019-02-18T04:01:15.783Z,5.04
2019-02-18T04:04:18.544Z,5.02
2019-02-18T04:07:21.194Z,4.83
2019-02-18T04:10:23.820Z,4.96
2019-02-18T04:13:26.522Z,4.82
2019-02-18T04:16:29.169Z,4.86
2019-02-18T04:19:31.737Z,4.80
2019-02-18T04:22:34.485Z,4.78
2019-02-18T04:25:37.057Z,5.07
2019-02-18T04:28:39.669Z,4.92
2019-02-18T04:31:42.223Z,4.87
2019-02-18T04:34:44.829Z,5.07
2019-02-18T04:37:47.512Z,4.91
2019-02-18T04:40:50.198Z,5.04
2019-02-18T04:43:52.750Z,5.26
2019-02-18T04:46:55.307Z,5.32
2019-02-18T04:49:58.003Z,5.20
2019-02-18T04:53:01.846Z,5.08
2019-02-18T04:56:04.375Z,5.03
2019-02-18T04:59:07.019Z,5.06
2019-02-18T05:02:09.559Z,5.06
2019-02-18T05:05:12.151Z,5.05
2019-02-18T05:08:14.725Z,5.06
2019-02-18T05:11:17.392Z,5.09
2019-02-18T05:14:20.054Z,5.24
2019-02-18T05:17:22.664Z,5.08
2019-02-18T05:20:25.303Z,4.95
2019-02-18T05:23:27.895Z,4.84
2019-02-18T05:26:30.493Z,4.98
2019-02-18T05:29:33.283Z,4.76
2019-02-18T05:32:35.930Z,4.92
2019-02-18T05:35:38.583Z,4.78
2019-02-18T05:38:41.392Z,4.59
2019-02-18T05:41:45.032Z,4.67
2019-02-18T05:44:47.606Z,4.94
2019-02-18T05:47:50.166Z,5.05
2019-02-18T05:50:52.770Z,5.12
2019-02-18T05:53:55.328Z,4.97
2019-02-18T05:56:57.946Z,5.11
2019-02-18T06:00:00.724Z,4.86
2019-02-18T06:03:03.433Z,4.75
2019-02-18T06:06:07.134Z,4.78
2019-02-18T06:09:09.757Z,4.78
2019-02-18T06:12:12.515Z,4.45
2019-02-18T06:15:15.056Z,4.44
2019-02-18T06:18:17.789Z,4.26
2019-02-18T06:21:20.480Z,4.20
2019-02-18T06:24:23.049Z,4.16
2019-02-18T06:27:25.609Z,4.32
2019-02-18T06:30:28.313Z,4.14
2019-02-18T06:33:30.963Z,4.10
2019-02-18T06:36:33.585Z,3.89
2019-02-18T06:39:41.494Z,3.99
2019-02-18T06:42:41.425Z,3.83
2019-02-18T06:46:03.022Z,3.86
2019-02-18T06:49:17.255Z,3.84
2019-02-18T06:52:20.784Z,3.95
2019-02-18T06:55:23.463Z,4.12
2019-02-18T06:58:48.499Z,4.32
2019-02-18T07:01:58.732Z,4.45
2019-02-18T07:05:12.961Z,4.48
2019-02-18T07:08:41.474Z,4.59
2019-02-18T07:11:48.895Z,4.62
2019-02-18T07:14:51.674Z,4.67
2019-02-18T07:17:54.263Z,4.83
2019-02-18T07:20:56.930Z,5.05
2019-02-18T07:23:59.462Z,5.10
2019-02-18T07:27:02.030Z,5.08
2019-02-18T07:30:07.019Z,5.23
2019-02-18T07:33:09.613Z,5.41
2019-02-18T07:36:12.245Z,5.53
2019-02-18T07:39:14.788Z,6.21
2019-02-18T07:42:17.457Z,6.10
2019-02-18T07:45:20.027Z,6.21
2019-02-18T07:48:22.845Z,6.24
2019-02-18T07:51:25.417Z,6.31
2019-02-18T07:54:29.132Z,6.38
2019-02-18T07:57:31.717Z,6.60
2019-02-18T08:00:34.403Z,6.68
2019-02-18T08:03:37.055Z,6.87
2019-02-18T08:06:39.660Z,7.15
2019-02-18T08:09:42.404Z,7.11
2019-02-18T08:12:45.055Z,7.09
2019-02-18T08:15:47.614Z,7.07
2019-02-18T08:18:50.158Z,7.26
2019-02-18T08:21:52.848Z,7.35
2019-02-18T08:24:55.390Z,7.65
2019-02-18T08:27:57.978Z,7.62
2019-02-18T08:31:00.601Z,7.58
2019-02-18T08:34:03.274Z,7.64
2019-02-18T08:37:06.023Z,7.69
2019-02-18T08:40:09.009Z,7.82
2019-02-18T08:43:11.571Z,7.84
2019-02-18T08:46:14.203Z,8.04
2019-02-18T08:49:16.863Z,8.04
2019-02-18T08:52:19.542Z,8.07
2019-02-18T08:55:22.219Z,8.07
2019-02-18T08:58:24.879Z,7.97
2019-02-18T09:01:27.544Z,7.98
2019-02-18T09:04:30.157Z,8.01
2019-02-18T09:07:32.853Z,7.92
2019-02-18T09:10:35.449Z,8.17
2019-02-18T09:13:38.208Z,8.41
2019-02-18T09:16:40.946Z,8.37
2019-02-18T09:19:43.571Z,8.30
2019-02-18T09:23:05.092Z,8.38
2019-02-18T09:26:07.697Z,8.37
2019-02-18T09:29:10.275Z,8.19
2019-02-18T09:32:12.898Z,8.45
2019-02-18T09:35:15.728Z,8.60
2019-02-18T09:38:25.062Z,8.39
2019-02-18T09:41:23.066Z,8.44
2019-02-18T09:44:25.828Z,8.63
2019-02-18T09:47:28.436Z,8.48
2019-02-18T09:50:31.183Z,8.67
2019-02-18T09:53:33.813Z,8.66
2019-02-18T09:56:37.053Z,8.77
2019-02-18T09:59:39.762Z,8.71
2019-02-18T10:02:42.461Z,8.73
2019-02-18T10:05:45.058Z,9.04
2019-02-18T10:08:47.647Z,9.06
2019-02-18T10:11:50.303Z,8.88
2019-02-18T10:14:52.883Z,8.92
2019-02-18T10:17:55.447Z,9.12
2019-02-18T10:20:58.069Z,9.21
2019-02-18T10:24:00.747Z,9.18
2019-02-18T10:27:03.617Z,9.20
2019-02-18T10:30:06.654Z,9.19
2019-02-18T10:33:09.362Z,9.48
2019-02-18T10:36:12.026Z,9.52
2019-02-18T10:39:14.584Z,9.69
2019-02-18T10:42:17.167Z,9.85
2019-02-18T10:45:19.910Z,9.80
2019-02-18T10:48:22.597Z,9.82
2019-02-18T10:51:25.276Z,9.94
2019-02-18T10:54:28.058Z,10.33
2019-02-18T10:57:32.518Z,10.26
2019-02-18T11:00:35.138Z,10.15
2019-02-18T11:03:37.761Z,10.30
2019-02-18T11:06:40.348Z,10.15
2019-02-18T11:09:43.238Z,10.20
2019-02-18T11:12:47.652Z,10.22
2019-02-18T11:15:50.398Z,10.36
2019-02-18T11:18:53.087Z,10.52
2019-02-18T11:21:55.778Z,10.46
2019-02-18T11:24:58.483Z,10.49
2019-02-18T11:28:01.251Z,10.83
2019-02-18T11:31:04.015Z,10.82
2019-02-18T11:34:06.734Z,11.11
2019-02-18T11:37:09.427Z,11.04
2019-02-18T11:40:13.206Z,11.32
2019-02-18T11:43:15.866Z,11.15
2019-02-18T11:46:18.492Z,11.32
2019-02-18T11:49:21.172Z,11.07
2019-02-18T11:52:23.882Z,11.38
2019-02-18T11:55:26.611Z,11.42
2019-02-18T11:58:29.303Z,11.57
2019-02-18T12:01:32.172Z,11.53
2019-02-18T12:04:34.886Z,11.63
2019-02-18T12:07:37.596Z,11.55
2019-02-18T12:10:40.301Z,11.53
2019-02-18T12:13:43.111Z,11.85
2019-02-18T12:16:45.931Z,11.89
2019-02-18T12:19:48.558Z,11.92
2019-02-18T12:22:51.206Z,12.03
2019-02-18T12:25:54.375Z,11.85
2019-02-18T12:28:57.047Z,11.98
2019-02-18T12:31:59.857Z,12.11
2019-02-18T12:35:02.607Z,11.83
2019-02-18T12:38:05.321Z,11.83
2019-02-18T12:41:08.026Z,12.05
2019-02-18T12:44:12.344Z,11.91
2019-02-18T12:47:15.037Z,12.25
2019-02-18T12:50:17.766Z,11.79
2019-02-18T12:53:23.431Z,11.64
2019-02-18T12:56:26.136Z,11.59
2019-02-18T12:59:29.187Z,11.77
2019-02-18T13:02:43.395Z,11.94
2019-02-18T13:05:38.366Z,12.07
2019-02-18T13:08:41.263Z,12.04
2019-02-18T13:11:43.963Z,12.19
2019-02-18T13:14:46.660Z,12.30
2019-02-18T13:17:49.453Z,12.04
2019-02-18T13:20:52.112Z,12.04
2019-02-18T13:23:54.831Z,12.52
2019-02-18T13:26:57.630Z,12.34
2019-02-18T13:30:00.365Z,12.10
2019-02-18T13:33:03.046Z,12.23
2019-02-18T13:36:11.173Z,12.67
2019-02-18T13:39:15.099Z,12.48
2019-02-18T13:42:17.772Z,12.05
2019-02-18T13:45:20.467Z,12.01
2019-02-18T13:48:23.164Z,12.36
2019-02-18T13:51:25.840Z,12.13
2019-02-18T13:54:28.501Z,12.03
2019-02-18T13:57:31.207Z,12.03
2019-02-18T14:00:34.260Z,11.91
2019-02-18T14:03:37.061Z,11.91
2019-02-18T14:06:39.730Z,12.06
2019-02-18T14:09:42.709Z,12.34
2019-02-18T14:12:45.407Z,12.13
2019-02-18T14:15:48.070Z,11.92
2019-02-18T14:18:50.777Z,11.72
2019-02-18T14:21:53.411Z,11.57
2019-02-18T14:24:57.989Z,11.76
2019-02-18T14:28:00.757Z,11.86
2019-02-18T14:31:04.396Z,11.93
2019-02-18T14:34:07.126Z,11.75
2019-02-18T14:37:09.851Z,12.01
2019-02-18T14:40:15.506Z,11.70
2019-02-18T14:43:18.187Z,11.56
2019-02-18T14:46:20.916Z,11.53
2019-02-18T14:49:23.576Z,11.53
2019-02-18T14:52:26.443Z,11.58
2019-02-18T14:55:29.046Z,11.77
2019-02-18T14:58:31.785Z,11.58
2019-02-18T15:01:34.485Z,11.58
2019-02-18T15:04:37.136Z,11.38
2019-02-18T15:07:39.854Z,11.73
2019-02-18T15:10:42.526Z,11.41
2019-02-18T15:13:47.131Z,11.40
2019-02-18T15:16:49.796Z,11.36
2019-02-18T15:19:52.479Z,11.33
2019-02-18T15:22:55.252Z,11.41
2019-02-18T15:25:57.952Z,11.36
2019-02-18T15:29:00.563Z,11.25
2019-02-18T15:32:03.262Z,11.11
2019-02-18T15:35:06.302Z,11.18
2019-02-18T15:38:09.301Z,11.09
2019-02-18T15:41:12.014Z,11.26
2019-02-18T15:44:14.728Z,11.11
2019-02-18T15:47:18.768Z,11.01
2019-02-18T15:50:21.720Z,11.00
2019-02-18T15:53:24.409Z,11.22
2019-02-18T15:56:27.632Z,10.97
2019-02-18T15:59:30.345Z,10.69
2019-02-18T16:02:33.115Z,10.81
2019-02-18T16:05:35.951Z,10.92
2019-02-18T16:08:38.732Z,10.55
2019-02-18T16:11:41.361Z,10.44
2019-02-18T16:14:43.996Z,10.55
2019-02-18T16:17:46.677Z,10.67
2019-02-18T16:20:49.532Z,10.44
2019-02-18T16:23:52.241Z,10.10
2019-02-18T16:26:54.946Z,10.16
2019-02-18T16:29:58.762Z,10.26
2019-02-18T16:33:01.454Z,10.24
2019-02-18T16:36:04.507Z,10.14
2019-02-18T16:39:07.470Z,10.10
2019-02-18T16:42:10.134Z,10.07
2019-02-18T16:45:13.427Z,9.85
2019-02-18T16:48:16.110Z,9.45
2019-02-18T16:51:18.776Z,9.47
2019-02-18T16:54:21.459Z,9.62
2019-02-18T16:57:24.134Z,9.49
2019-02-18T17:00:30.534Z,9.53
2019-02-18T17:03:33.271Z,9.40
2019-02-18T17:06:35.984Z,9.24
2019-02-18T17:09:38.741Z,9.17
2019-02-18T17:12:42.526Z,8.88
2019-02-18T17:15:48.784Z,9.07
2019-02-18T17:18:51.465Z,9.20
2019-02-18T17:21:54.181Z,9.21
2019-02-18T17:24:57.045Z,9.30
2019-02-18T17:27:59.781Z,9.27
2019-02-18T17:31:02.434Z,9.14
2019-02-18T17:34:05.481Z,9.07
2019-02-18T17:37:08.470Z,9.29
2019-02-18T17:40:11.625Z,9.07
2019-02-18T17:43:16.624Z,8.92
2019-02-18T17:46:19.170Z,8.91
2019-02-18T17:49:21.941Z,8.86
2019-02-18T17:52:24.582Z,8.91
2019-02-18T17:55:27.221Z,9.20
2019-02-18T17:58:30.015Z,9.07
2019-02-18T18:01:33.855Z,9.11
2019-02-18T18:04:36.518Z,8.87
2019-02-18T18:07:39.247Z,8.72
2019-02-18T18:10:41.900Z,8.61
2019-02-18T18:13:44.593Z,8.95
2019-02-18T18:16:47.214Z,9.18
2019-02-18T18:19:49.979Z,9.00
2019-02-18T18:22:52.643Z,9.07
2019-02-18T18:25:55.332Z,9.18
2019-02-18T18:28:58.050Z,8.73
2019-02-18T18:32:00.731Z,9.08
2019-02-18T18:35:04.478Z,8.77
2019-02-18T18:38:08.872Z,8.61
2019-02-18T18:41:14.641Z,8.53
2019-02-18T18:44:17.545Z,8.50
2019-02-18T18:47:20.378Z,8.86
2019-02-18T18:50:24.575Z,9.03
2019-02-18T18:53:27.285Z,8.91
2019-02-18T18:56:29.987Z,8.53
2019-02-18T18:59:32.629Z,8.62
2019-02-18T19:02:35.401Z,8.36
2019-02-18T19:05:38.141Z,8.42
2019-02-18T19:08:40.885Z,8.42
2019-02-18T19:11:43.525Z,8.90
2019-02-18T19:14:46.176Z,8.52
2019-02-18T19:17:48.893Z,8.34
2019-02-18T19:20:51.562Z,8.42
2019-02-18T19:23:54.345Z,8.42
2019-02-18T19:26:57.049Z,8.18
2019-02-18T19:29:59.903Z,7.97
2019-02-18T19:33:02.469Z,7.67
2019-02-18T19:36:05.305Z,7.71
2019-02-18T19:39:08.239Z,7.34
2019-02-18T19:42:10.996Z,7.15
2019-02-18T19:45:17.939Z,6.91
2019-02-18T19:48:20.655Z,7.13
2019-02-18T19:51:23.530Z,7.15
2019-02-18T19:54:26.246Z,7.40
2019-02-18T19:57:29.033Z,7.26
2019-02-18T20:00:31.769Z,7.24
2019-02-18T20:03:34.564Z,7.11
2019-02-18T20:06:40.414Z,7.03
2019-02-18T20:09:43.094Z,7.14
2019-02-18T20:12:46.850Z,6.94
2019-02-18T20:15:49.579Z,7.81
2019-02-18T20:18:52.295Z,7.67
2019-02-18T20:21:54.945Z,7.83
2019-02-18T20:24:57.980Z,8.23
2019-02-18T20:28:00.744Z,8.44
2019-02-18T20:31:03.490Z,8.26
2019-02-18T20:34:06.475Z,8.27
2019-02-18T20:37:09.570Z,8.26
2019-02-18T20:40:12.685Z,8.27
2019-02-18T20:43:15.896Z,7.93
2019-02-18T20:46:18.605Z,7.87
2019-02-18T20:49:21.259Z,8.04
2019-02-18T20:52:24.350Z,8.14
2019-02-18T20:55:27.080Z,8.02
2019-02-18T20:58:30.010Z,7.64
2019-02-18T21:01:33.165Z,7.72
2019-02-18T21:04:35.962Z,7.18
2019-02-18T21:07:38.703Z,7.53
2019-02-18T21:10:41.440Z,7.62
2019-02-18T21:13:44.264Z,7.03
2019-02-18T21:16:46.943Z,7.52
2019-02-18T21:19:49.691Z,7.56
2019-02-18T21:22:53.185Z,7.41
2019-02-18T21:25:56.129Z,7.71
2019-02-18T21:28:58.834Z,7.81
2019-02-18T21:32:02.473Z,7.78
2019-02-18T21:35:05.599Z,7.91
2019-02-18T21:38:08.585Z,7.78
2019-02-18T21:41:11.344Z,8.00
2019-02-18T21:44:14.137Z,7.94
2019-02-18T21:47:17.769Z,7.88
2019-02-18T21:50:20.484Z,7.88
2019-02-18T21:53:23.267Z,7.87
2019-02-18T21:56:26.106Z,8.12
2019-02-18T21:59:28.679Z,8.03
2019-02-18T22:02:31.423Z,7.78
2019-02-18T22:05:34.200Z,7.59
2019-02-18T22:08:36.985Z,7.62
2019-02-18T22:11:39.688Z,7.48
2019-02-18T22:14:42.349Z,7.35
2019-02-18T22:17:45.108Z,7.09
2019-02-18T22:20:48.121Z,7.53
2019-02-18T22:23:50.842Z,7.37
2019-02-18T22:26:53.455Z,7.77
2019-02-18T22:29:56.157Z,7.91
2019-02-18T22:32:58.814Z,7.73
2019-02-18T22:36:01.452Z,7.63
2019-02-18T22:39:05.194Z,7.77
2019-02-18T22:42:09.666Z,7.82
2019-02-18T22:45:12.493Z,7.59
2019-02-18T22:48:15.303Z,7.83
2019-02-18T22:51:18.103Z,7.74
2019-02-18T22:54:20.878Z,7.94
2019-02-18T22:57:23.547Z,7.59
2019-02-18T23:00:52.290Z,7.63
2019-02-18T23:03:55.122Z,7.43
2019-02-18T23:06:58.097Z,7.27
2019-02-18T23:10:00.901Z,7.17
2019-02-18T23:13:03.561Z,7.03
2019-02-18T23:16:06.359Z,7.20
2019-02-18T23:19:09.967Z,7.32
2019-02-18T23:22:12.692Z,7.45
2019-02-18T23:25:15.352Z,7.45
2019-02-18T23:28:18.034Z,7.50
2019-02-18T23:31:20.732Z,7.49
2019-02-18T23:34:23.515Z,7.65
2019-02-18T23:37:26.166Z,7.55
2019-02-18T23:40:28.754Z,7.42
2019-02-18T23:43:31.474Z,7.41
2019-02-18T23:46:34.182Z,7.58
2019-02-18T23:49:36.876Z,7.55
2019-02-18T23:52:39.553Z,7.58
2019-02-18T23:55:43.131Z,7.62
2019-02-18T23:58:45.813Z,7.48
